createdAt,value
2017-05-19T00:02:19.410Z,10.68
2017-05-19T00:04:47.655Z,10.80
2017-05-19T00:07:15.849Z,10.52
2017-05-19T00:09:44.058Z,11.52
2017-05-19T00:12:12.278Z,11.65
2017-05-19T00:14:40.480Z,11.48
2017-05-19T00:17:08.706Z,11.92
2017-05-19T00:19:36.915Z,11.37
2017-05-19T00:22:05.129Z,11.57
2017-05-19T00:24:33.339Z,11.54
2017-05-19T00:27:01.547Z,10.88
2017-05-19T00:29:29.783Z,11.34
2017-05-19T00:31:57.990Z,10.67
2017-05-19T00:34:26.195Z,11.32
2017-05-19T00:36:54.400Z,11.25
2017-05-19T00:39:22.602Z,11.07
2017-05-19T00:41:50.838Z,11.12
2017-05-19T00:44:19.056Z,11.25
2017-05-19T00:46:46.492Z,10.82
2017-05-19T00:49:14.700Z,11.55
2017-05-19T00:51:42.899Z,12.25
2017-05-19T00:54:11.397Z,12.02
2017-05-19T00:56:39.600Z,10.47
2017-05-19T00:59:07.048Z,11.50
2017-05-19T01:01:35.255Z,11.17
2017-05-19T01:04:03.467Z,11.47
2017-05-19T01:06:31.687Z,11.92
2017-05-19T01:08:59.895Z,13.65
2017-05-19T01:11:28.098Z,13.36
2017-05-19T01:13:56.325Z,17.23
2017-05-19T01:16:24.520Z,16.42
2017-05-19T01:18:52.761Z,18.22
2017-05-19T01:21:20.960Z,16.97
2017-05-19T01:23:49.214Z,16.42
2017-05-19T01:26:17.417Z,20.23
2017-05-19T01:28:45.665Z,22.26
2017-05-19T01:31:13.912Z,20.12
2017-05-19T01:33:42.116Z,23.62
2017-05-19T01:36:10.326Z,29.82
2017-05-19T01:38:38.527Z,28.93
2017-05-19T01:41:06.722Z,29.15
2017-05-19T01:43:34.939Z,29.98
2017-05-19T01:46:03.138Z,30.25
2017-05-19T01:48:31.344Z,31.20
2017-05-19T01:50:59.567Z,32.20
2017-05-19T01:53:27.780Z,31.30
2017-05-19T01:55:56.002Z,31.42
2017-05-19T01:58:24.219Z,32.33
2017-05-19T02:00:52.421Z,32.32
2017-05-19T02:03:20.642Z,33.57
2017-05-19T02:05:48.847Z,32.50
2017-05-19T02:08:17.074Z,33.70
2017-05-19T02:10:45.294Z,35.50
2017-05-19T02:13:13.508Z,36.68
2017-05-19T02:15:41.725Z,37.42
2017-05-19T02:18:09.922Z,37.84
2017-05-19T02:20:38.164Z,38.03
2017-05-19T02:23:06.368Z,35.48
2017-05-19T02:25:34.580Z,35.43
2017-05-19T02:28:02.839Z,34.28
2017-05-19T02:30:31.052Z,34.25
2017-05-19T02:32:59.294Z,36.35
2017-05-19T02:35:27.502Z,35.47
2017-05-19T02:37:55.714Z,37.22
2017-05-19T02:40:23.921Z,36.42
2017-05-19T02:42:52.140Z,33.73
2017-05-19T02:45:20.358Z,35.20
2017-05-19T02:47:48.559Z,35.92
2017-05-19T02:50:16.772Z,37.38
2017-05-19T02:52:45.006Z,35.98
2017-05-19T02:55:13.198Z,36.37
2017-05-19T02:57:41.435Z,35.60
2017-05-19T03:00:09.651Z,33.57
2017-05-19T03:02:38.117Z,32.24
2017-05-19T03:05:06.319Z,33.50
2017-05-19T03:07:34.512Z,33.30
2017-05-19T03:10:02.738Z,34.03
2017-05-19T03:12:30.948Z,34.18
2017-05-19T03:14:59.157Z,32.20
2017-05-19T03:17:27.374Z,30.08
2017-05-19T03:19:55.583Z,30.50
2017-05-19T03:22:23.792Z,31.13
2017-05-19T03:24:52.000Z,31.03
2017-05-19T03:27:20.206Z,29.73
2017-05-19T03:29:48.434Z,29.46
2017-05-19T03:32:16.644Z,28.07
2017-05-19T03:34:44.876Z,27.47
2017-05-19T03:37:13.078Z,27.30
2017-05-19T03:39:41.283Z,27.62
2017-05-19T03:42:09.511Z,25.68
2017-05-19T03:44:37.714Z,26.63
2017-05-19T03:47:05.915Z,26.16
2017-05-19T03:49:34.131Z,26.22
2017-05-19T03:52:02.339Z,24.02
2017-05-19T03:54:30.571Z,24.05
2017-05-19T03:56:58.787Z,25.00
2017-05-19T03:59:26.993Z,25.40
2017-05-19T04:01:55.203Z,24.13
2017-05-19T04:04:23.407Z,24.37
2017-05-19T04:06:51.639Z,23.05
2017-05-19T04:09:19.836Z,23.83
2017-05-19T04:11:48.043Z,23.00
2017-05-19T04:14:16.267Z,23.80
2017-05-19T04:16:44.470Z,23.98
2017-05-19T04:19:12.679Z,23.93
2017-05-19T04:21:40.945Z,23.27
2017-05-19T04:24:09.195Z,24.70
2017-05-19T04:26:37.445Z,24.98
2017-05-19T04:29:05.650Z,25.38
2017-05-19T04:31:33.870Z,24.88
2017-05-19T04:34:02.092Z,23.72
2017-05-19T04:36:30.296Z,23.53
2017-05-19T04:38:58.519Z,25.03
2017-05-19T04:41:25.963Z,23.75
2017-05-19T04:43:54.176Z,23.58
2017-05-19T04:46:22.385Z,23.73
2017-05-19T04:48:50.617Z,26.20
2017-05-19T04:51:18.836Z,24.22
2017-05-19T04:53:47.047Z,26.00
2017-05-19T04:56:14.489Z,24.70
2017-05-19T04:58:42.702Z,26.00
2017-05-19T05:01:10.910Z,26.43
2017-05-19T05:03:39.140Z,28.32
2017-05-19T05:06:07.362Z,28.82
2017-05-19T05:08:35.563Z,26.52
2017-05-19T05:11:03.771Z,27.13
2017-05-19T05:13:32.009Z,26.00
2017-05-19T05:16:00.250Z,26.22
2017-05-19T05:18:28.458Z,26.56
2017-05-19T05:20:55.928Z,27.38
2017-05-19T05:23:23.371Z,22.95
2017-05-19T05:25:50.821Z,23.48
2017-05-19T05:28:18.280Z,26.68
2017-05-19T05:30:45.729Z,26.93
2017-05-19T05:33:13.183Z,25.08
2017-05-19T05:35:41.395Z,27.32
2017-05-19T05:38:09.609Z,28.37
2017-05-19T05:40:37.095Z,28.00
2017-05-19T05:43:05.299Z,26.14
2017-05-19T05:45:33.527Z,24.43
2017-05-19T05:48:01.740Z,24.67
2017-05-19T05:50:29.974Z,26.03
2017-05-19T05:52:58.183Z,28.47
2017-05-19T05:55:26.391Z,29.33
2017-05-19T05:57:54.603Z,28.10
2017-05-19T06:00:22.827Z,26.56
2017-05-19T06:02:51.069Z,28.62
2017-05-19T06:05:19.291Z,26.93
2017-05-19T06:07:47.517Z,29.57
2017-05-19T06:10:15.792Z,26.43
2017-05-19T06:12:44.059Z,27.28
2017-05-19T06:15:12.274Z,31.40
2017-05-19T06:17:40.518Z,31.06
2017-05-19T06:20:08.732Z,29.30
2017-05-19T06:22:36.928Z,31.77
2017-05-19T06:25:05.190Z,33.07
2017-05-19T06:27:33.404Z,30.13
2017-05-19T06:30:01.639Z,31.80
2017-05-19T06:32:29.843Z,34.83
2017-05-19T06:34:58.065Z,33.70
2017-05-19T06:37:26.290Z,32.65
2017-05-19T06:39:54.607Z,27.60
2017-05-19T06:42:22.826Z,30.27
2017-05-19T06:44:51.056Z,30.63
2017-05-19T06:47:19.254Z,31.30
2017-05-19T06:49:47.507Z,32.20
2017-05-19T06:52:15.714Z,32.02
2017-05-19T06:54:43.995Z,34.12
2017-05-19T06:57:12.234Z,32.62
2017-05-19T06:59:40.451Z,35.52
2017-05-19T07:02:08.679Z,33.32
2017-05-19T07:04:36.894Z,34.56
2017-05-19T07:07:05.159Z,33.28
2017-05-19T07:09:33.355Z,29.98
2017-05-19T07:12:01.615Z,33.85
2017-05-19T07:14:29.852Z,33.10
2017-05-19T07:16:58.068Z,32.54
2017-05-19T07:19:26.328Z,36.07
2017-05-19T07:21:54.523Z,35.93
2017-05-19T07:24:58.648Z,35.45
2017-05-19T07:27:26.955Z,33.40
2017-05-19T07:29:55.164Z,35.26
2017-05-19T07:32:23.415Z,35.47
2017-05-19T07:34:51.647Z,33.78
2017-05-19T07:37:19.904Z,33.55
2017-05-19T07:39:48.573Z,36.67
2017-05-19T07:42:16.785Z,36.00
2017-05-19T07:44:45.004Z,35.37
2017-05-19T07:47:13.241Z,34.50
2017-05-19T07:49:41.526Z,35.15
2017-05-19T07:52:09.786Z,33.53
2017-05-19T07:54:38.058Z,33.45
2017-05-19T07:57:06.295Z,35.80
2017-05-19T07:59:34.528Z,32.30
2017-05-19T08:02:02.761Z,36.08
2017-05-19T08:04:30.979Z,35.58
2017-05-19T08:06:59.192Z,34.64
2017-05-19T08:09:27.512Z,34.65
2017-05-19T08:11:55.750Z,35.08
2017-05-19T08:14:23.955Z,37.07
2017-05-19T08:16:52.239Z,35.57
2017-05-19T08:19:20.479Z,35.88
2017-05-19T08:21:48.802Z,35.12
2017-05-19T08:24:17.039Z,37.07
2017-05-19T08:26:45.245Z,36.58
2017-05-19T08:29:13.463Z,37.70
2017-05-19T08:31:41.707Z,36.83
2017-05-19T08:34:09.922Z,36.68
2017-05-19T08:36:38.141Z,35.63
2017-05-19T08:39:06.571Z,35.83
2017-05-19T08:41:34.774Z,35.93
2017-05-19T08:44:03.020Z,37.07
2017-05-19T08:46:31.328Z,34.22
2017-05-19T08:48:59.545Z,34.82
2017-05-19T08:51:27.783Z,34.45
2017-05-19T08:53:56.025Z,32.08
2017-05-19T08:56:24.243Z,29.08
2017-05-19T08:58:52.470Z,29.65
2017-05-19T09:01:20.724Z,27.20
2017-05-19T09:03:48.978Z,27.42
2017-05-19T09:06:17.203Z,27.80
2017-05-19T09:08:45.496Z,27.67
2017-05-19T09:11:13.758Z,28.18
2017-05-19T09:13:42.082Z,26.47
2017-05-19T09:16:10.350Z,26.73
2017-05-19T09:18:38.568Z,26.08
2017-05-19T09:21:06.771Z,25.32
2017-05-19T09:23:35.071Z,25.68
2017-05-19T09:26:03.314Z,25.24
2017-05-19T09:28:31.602Z,24.58
2017-05-19T09:30:59.847Z,23.07
2017-05-19T09:33:28.148Z,23.12
2017-05-19T09:35:56.479Z,23.90
2017-05-19T09:38:24.873Z,23.18
2017-05-19T09:40:53.197Z,26.10
2017-05-19T09:43:21.447Z,23.38
2017-05-19T09:45:49.744Z,22.73
2017-05-19T09:48:17.269Z,21.83
2017-05-19T09:50:45.534Z,24.03
2017-05-19T09:53:13.794Z,25.07
2017-05-19T09:55:42.013Z,24.35
2017-05-19T09:58:10.217Z,24.76
2017-05-19T10:00:38.443Z,25.65
2017-05-19T10:03:06.658Z,26.13
2017-05-19T10:05:34.907Z,27.22
2017-05-19T10:08:03.183Z,27.83
2017-05-19T10:10:31.440Z,28.55
2017-05-19T10:12:59.681Z,28.57
2017-05-19T10:15:27.912Z,27.72
2017-05-19T10:17:56.197Z,27.23
2017-05-19T10:20:24.418Z,25.45
2017-05-19T10:22:52.668Z,26.15
2017-05-19T10:25:20.903Z,26.27
2017-05-19T10:27:49.125Z,27.87
2017-05-19T10:30:17.560Z,26.45
2017-05-19T10:32:46.036Z,26.80
2017-05-19T10:35:14.289Z,26.30
2017-05-19T10:37:42.598Z,27.60
2017-05-19T10:40:10.882Z,26.23
2017-05-19T10:42:39.102Z,26.90
2017-05-19T10:45:07.524Z,27.62
2017-05-19T10:47:35.806Z,27.42
2017-05-19T10:50:04.043Z,26.45
2017-05-19T10:52:32.355Z,29.07
2017-05-19T10:55:00.631Z,27.57
2017-05-19T10:57:28.838Z,28.12
2017-05-19T10:59:57.086Z,29.57
2017-05-19T11:02:25.370Z,26.43
2017-05-19T11:04:53.651Z,29.02
2017-05-19T11:07:21.899Z,27.68
2017-05-19T11:09:50.119Z,27.72
2017-05-19T11:12:18.357Z,27.65
2017-05-19T11:14:46.771Z,28.20
2017-05-19T11:17:15.179Z,28.90
2017-05-19T11:19:43.379Z,30.47
2017-05-19T11:22:11.655Z,28.62
2017-05-19T11:24:39.911Z,30.43
2017-05-19T11:27:08.239Z,29.17
2017-05-19T11:29:36.595Z,29.46
2017-05-19T11:32:04.920Z,28.80
2017-05-19T11:34:33.175Z,26.12
2017-05-19T11:37:01.507Z,26.34
2017-05-19T11:39:29.832Z,29.28
2017-05-19T11:41:58.035Z,26.38
2017-05-19T11:44:26.304Z,27.18
2017-05-19T11:46:54.507Z,27.80
2017-05-19T11:49:22.723Z,27.07
2017-05-19T11:51:51.055Z,28.42
2017-05-19T11:54:19.283Z,26.75
2017-05-19T11:56:47.510Z,28.18
2017-05-19T11:59:15.739Z,31.73
2017-05-19T12:01:43.951Z,30.35
2017-05-19T12:04:12.243Z,28.55
2017-05-19T12:06:40.508Z,27.57
2017-05-19T12:09:08.723Z,28.54
2017-05-19T12:11:40.918Z,27.33
2017-05-19T12:14:09.191Z,27.13
2017-05-19T12:16:37.547Z,26.68
2017-05-19T12:19:05.799Z,24.52
2017-05-19T12:21:34.057Z,27.02
2017-05-19T12:24:02.323Z,26.55
2017-05-19T12:26:30.565Z,28.78
2017-05-19T12:28:58.793Z,29.52
2017-05-19T12:31:26.999Z,30.45
2017-05-19T12:33:55.327Z,29.34
2017-05-19T12:36:23.579Z,27.12
2017-05-19T12:38:51.047Z,29.35
2017-05-19T12:41:19.355Z,27.20
2017-05-19T12:43:47.714Z,25.22
2017-05-19T12:46:16.193Z,26.04
2017-05-19T12:48:44.583Z,27.55
2017-05-19T12:51:12.895Z,29.38
2017-05-19T12:53:41.328Z,28.73
2017-05-19T12:56:09.546Z,26.85
2017-05-19T12:58:37.780Z,25.86
2017-05-19T13:01:06.048Z,28.03
2017-05-19T13:03:34.356Z,30.17
2017-05-19T13:06:02.614Z,34.28
2017-05-19T13:08:30.886Z,32.08
2017-05-19T13:10:59.124Z,32.03
2017-05-19T13:13:27.434Z,30.48
2017-05-19T13:15:55.694Z,29.55
2017-05-19T13:18:23.899Z,29.77
2017-05-19T13:20:52.174Z,29.13
2017-05-19T13:23:20.399Z,28.37
2017-05-19T13:25:48.612Z,28.47
2017-05-19T13:28:16.106Z,27.13
2017-05-19T13:30:44.330Z,27.05
2017-05-19T13:33:12.631Z,28.60
2017-05-19T13:35:40.878Z,29.87
2017-05-19T13:38:09.128Z,29.40
2017-05-19T13:40:37.419Z,28.50
2017-05-19T13:43:05.639Z,30.45
2017-05-19T13:45:33.870Z,28.15
2017-05-19T13:48:02.177Z,30.70
2017-05-19T13:50:30.603Z,32.93
2017-05-19T13:52:59.227Z,33.22
2017-05-19T13:55:27.463Z,30.20
2017-05-19T13:57:55.676Z,32.67
2017-05-19T14:00:23.908Z,35.12
2017-05-19T14:02:52.224Z,33.37
2017-05-19T14:05:20.479Z,32.73
2017-05-19T14:07:48.797Z,30.22
2017-05-19T14:10:17.011Z,32.32
2017-05-19T14:12:45.423Z,31.73
2017-05-19T14:15:13.655Z,30.68
2017-05-19T14:17:41.972Z,30.94
2017-05-19T14:20:10.318Z,29.52
2017-05-19T14:22:38.626Z,29.68
2017-05-19T14:25:06.857Z,32.27
2017-05-19T14:27:35.079Z,30.78
2017-05-19T14:30:03.456Z,30.13
2017-05-19T14:32:31.729Z,32.26
2017-05-19T14:34:59.948Z,31.38
2017-05-19T14:37:28.174Z,32.73
2017-05-19T14:39:56.391Z,32.15
2017-05-19T14:42:24.639Z,31.50
2017-05-19T14:44:52.857Z,33.68
2017-05-19T14:47:21.076Z,31.93
2017-05-19T14:49:49.372Z,34.40
2017-05-19T14:52:17.626Z,33.88
2017-05-19T14:54:45.879Z,35.05
2017-05-19T14:57:14.099Z,34.68
2017-05-19T14:59:42.325Z,36.08
2017-05-19T15:02:10.627Z,36.60
2017-05-19T15:04:38.860Z,37.75
2017-05-19T15:07:07.144Z,36.48
2017-05-19T15:09:35.480Z,35.55
2017-05-19T15:12:03.730Z,35.38
2017-05-19T15:14:32.003Z,37.14
2017-05-19T15:17:00.271Z,36.25
2017-05-19T15:19:28.547Z,37.52
2017-05-19T15:21:56.904Z,39.24
2017-05-19T15:24:25.116Z,40.20
2017-05-19T15:26:53.368Z,40.12
2017-05-19T15:29:21.651Z,39.44
2017-05-19T15:31:49.930Z,40.08
2017-05-19T15:34:18.131Z,35.53
2017-05-19T15:36:46.379Z,37.40
2017-05-19T15:39:14.665Z,36.73
2017-05-19T15:41:43.102Z,35.27
2017-05-19T15:44:11.339Z,35.43
2017-05-19T15:46:39.567Z,36.50
2017-05-19T15:49:07.801Z,36.95
2017-05-19T15:51:36.026Z,35.25
2017-05-19T15:54:04.283Z,38.45
2017-05-19T15:56:32.524Z,37.27
2017-05-19T15:59:00.748Z,38.47
2017-05-19T16:01:28.992Z,37.08
2017-05-19T16:03:57.239Z,38.33
2017-05-19T16:06:25.475Z,38.33
2017-05-19T16:08:53.781Z,36.68
2017-05-19T16:11:21.999Z,35.33
2017-05-19T16:13:50.212Z,38.07
2017-05-19T16:16:18.446Z,36.18
2017-05-19T16:18:46.663Z,37.90
2017-05-19T16:21:14.906Z,34.10
2017-05-19T16:23:43.121Z,35.68
2017-05-19T16:26:11.387Z,35.32
2017-05-19T16:28:39.648Z,37.00
2017-05-19T16:31:07.879Z,35.98
2017-05-19T16:33:36.142Z,33.87
2017-05-19T16:36:04.361Z,36.47
2017-05-19T16:38:32.705Z,34.78
2017-05-19T16:41:01.024Z,34.77
2017-05-19T16:43:29.247Z,37.44
2017-05-19T16:45:57.487Z,39.52
2017-05-19T16:48:25.711Z,39.25
2017-05-19T16:50:53.918Z,43.73
2017-05-19T16:53:22.279Z,42.25
2017-05-19T16:55:50.619Z,44.37
2017-05-19T16:58:18.889Z,43.77
2017-05-19T17:00:47.106Z,43.83
2017-05-19T17:03:15.330Z,43.48
2017-05-19T17:05:43.574Z,42.25
2017-05-19T17:08:11.854Z,40.10
2017-05-19T17:10:40.080Z,42.20
2017-05-19T17:13:08.375Z,41.62
2017-05-19T17:15:36.596Z,36.78
2017-05-19T17:18:04.943Z,38.02
2017-05-19T17:20:33.166Z,38.63
2017-05-19T17:23:01.436Z,38.95
2017-05-19T17:25:29.656Z,34.83
2017-05-19T17:27:57.964Z,35.38
2017-05-19T17:30:26.243Z,38.72
2017-05-19T17:32:54.495Z,35.05
2017-05-19T17:35:22.775Z,34.03
2017-05-19T17:37:51.002Z,35.55
2017-05-19T17:40:19.234Z,32.22
2017-05-19T17:42:47.501Z,35.18
2017-05-19T17:45:15.760Z,33.32
2017-05-19T17:47:44.020Z,33.14
2017-05-19T17:50:12.345Z,35.50
2017-05-19T17:52:40.558Z,30.13
2017-05-19T17:55:08.868Z,31.48
2017-05-19T17:57:37.161Z,31.72
2017-05-19T18:00:05.392Z,32.15
2017-05-19T18:02:33.705Z,28.78
2017-05-19T18:05:01.920Z,28.40
2017-05-19T18:07:30.151Z,26.70
2017-05-19T18:09:58.438Z,26.15
2017-05-19T18:12:26.725Z,27.58
2017-05-19T18:14:54.998Z,26.92
2017-05-19T18:17:23.337Z,23.98
2017-05-19T18:19:51.554Z,23.72
2017-05-19T18:22:19.762Z,23.77
2017-05-19T18:24:48.155Z,22.00
2017-05-19T18:27:16.733Z,20.55
2017-05-19T18:29:45.055Z,21.18
2017-05-19T18:32:13.324Z,18.30
2017-05-19T18:34:41.534Z,20.80
2017-05-19T18:37:09.795Z,20.63
2017-05-19T18:39:38.018Z,19.82
2017-05-19T18:42:06.238Z,20.37
2017-05-19T18:44:34.491Z,20.48
2017-05-19T18:47:02.712Z,19.83
2017-05-19T18:49:31.247Z,20.03
2017-05-19T18:51:59.534Z,23.00
2017-05-19T18:54:27.791Z,24.05
2017-05-19T18:56:56.035Z,23.65
2017-05-19T18:59:24.348Z,25.28
2017-05-19T19:01:52.595Z,26.43
2017-05-19T19:04:20.894Z,28.35
2017-05-19T19:06:49.126Z,29.72
2017-05-19T19:09:17.348Z,30.82
2017-05-19T19:11:45.610Z,29.47
2017-05-19T19:14:13.831Z,31.83
2017-05-19T19:16:42.047Z,31.72
2017-05-19T19:19:10.344Z,31.70
2017-05-19T19:21:38.580Z,35.13
2017-05-19T19:24:06.802Z,37.62
2017-05-19T19:26:35.085Z,39.90
2017-05-19T19:29:03.347Z,42.52
2017-05-19T19:31:31.592Z,36.75
2017-05-19T19:33:59.810Z,38.65
2017-05-19T19:36:28.086Z,38.40
2017-05-19T19:38:56.328Z,39.08
2017-05-19T19:41:24.631Z,41.35
2017-05-19T19:43:52.846Z,40.82
2017-05-19T19:46:21.159Z,39.35
2017-05-19T19:48:49.374Z,36.93
2017-05-19T19:51:17.771Z,36.13
2017-05-19T19:53:45.998Z,39.87
2017-05-19T19:56:14.263Z,37.20
2017-05-19T19:58:42.547Z,36.70
2017-05-19T20:01:10.767Z,36.77
2017-05-19T20:03:39.111Z,37.18
2017-05-19T20:06:07.383Z,38.03
2017-05-19T20:08:35.660Z,36.18
2017-05-19T20:11:03.914Z,38.62
2017-05-19T20:13:32.175Z,37.62
2017-05-19T20:16:00.614Z,39.63
2017-05-19T20:18:28.891Z,42.53
2017-05-19T20:20:57.150Z,42.97
2017-05-19T20:23:25.414Z,42.13
2017-05-19T20:25:53.732Z,39.97
2017-05-19T20:28:21.983Z,41.28
2017-05-19T20:30:50.278Z,38.27
2017-05-19T20:33:18.623Z,41.75
2017-05-19T20:35:47.018Z,43.18
2017-05-19T20:38:15.229Z,35.62
2017-05-19T20:40:43.495Z,36.70
2017-05-19T20:43:11.730Z,37.13
2017-05-19T20:45:40.017Z,38.12
2017-05-19T20:48:08.249Z,37.40
2017-05-19T20:50:36.480Z,41.15
2017-05-19T20:53:04.736Z,38.18
2017-05-19T20:55:32.955Z,41.85
2017-05-19T20:58:01.295Z,41.53
2017-05-19T21:00:29.564Z,44.15
2017-05-19T21:02:57.807Z,46.60
2017-05-19T21:05:26.065Z,48.15
2017-05-19T21:07:54.305Z,45.92
2017-05-19T21:10:22.527Z,45.10
2017-05-19T21:12:50.823Z,44.72
2017-05-19T21:15:19.152Z,43.28
2017-05-19T21:17:47.369Z,45.68
2017-05-19T21:20:15.586Z,42.52
2017-05-19T21:22:43.908Z,44.20
2017-05-19T21:25:12.156Z,42.75
2017-05-19T21:27:40.360Z,46.58
2017-05-19T21:30:08.743Z,36.88
2017-05-19T21:32:36.958Z,40.75
2017-05-19T21:35:05.185Z,40.13
2017-05-19T21:37:33.430Z,40.98
2017-05-19T21:40:01.644Z,44.37
2017-05-19T21:42:29.921Z,47.55
2017-05-19T21:44:58.138Z,49.47
2017-05-19T21:47:26.446Z,52.85
2017-05-19T21:49:54.705Z,49.47
2017-05-19T21:52:23.016Z,43.62
2017-05-19T21:54:51.276Z,44.30
2017-05-19T21:57:19.555Z,41.35
2017-05-19T21:59:47.767Z,42.06
2017-05-19T22:02:16.102Z,35.58
2017-05-19T22:04:44.325Z,37.53
2017-05-19T22:07:12.633Z,31.97
2017-05-19T22:09:40.847Z,31.13
2017-05-19T22:12:09.207Z,30.27
2017-05-19T22:14:37.447Z,25.12
2017-05-19T22:17:05.766Z,22.75
2017-05-19T22:19:33.975Z,25.82
2017-05-19T22:22:02.231Z,22.13
2017-05-19T22:24:30.479Z,24.48
2017-05-19T22:26:58.719Z,24.03
2017-05-19T22:29:26.949Z,24.02
2017-05-19T22:31:55.202Z,25.13
2017-05-19T22:34:23.582Z,25.02
2017-05-19T22:36:51.819Z,23.33
2017-05-19T22:39:20.108Z,23.18
2017-05-19T22:41:48.303Z,22.33
2017-05-19T22:44:16.514Z,23.77
2017-05-19T22:46:44.779Z,23.50
2017-05-19T22:49:13.000Z,23.85
2017-05-19T22:51:41.302Z,26.08
2017-05-19T22:54:09.519Z,25.62
2017-05-19T22:56:37.750Z,25.15
2017-05-19T22:59:05.983Z,25.37
2017-05-19T23:01:34.198Z,25.02
2017-05-19T23:04:02.431Z,25.27
2017-05-19T23:06:30.645Z,23.13
2017-05-19T23:08:58.858Z,22.02
2017-05-19T23:11:27.206Z,21.95
2017-05-19T23:13:55.480Z,22.23
2017-05-19T23:16:23.706Z,21.65
2017-05-19T23:18:51.926Z,22.13
2017-05-19T23:21:20.220Z,21.75
2017-05-19T23:23:48.484Z,20.98
2017-05-19T23:26:16.763Z,19.50
2017-05-19T23:28:45.033Z,20.05
2017-05-19T23:31:13.310Z,19.86
2017-05-19T23:33:41.533Z,20.57
2017-05-19T23:36:09.869Z,20.22
2017-05-19T23:38:38.231Z,20.60
2017-05-19T23:41:06.615Z,22.38
2017-05-19T23:43:34.851Z,22.33
2017-05-19T23:46:03.054Z,22.47
2017-05-19T23:48:31.335Z,23.05
2017-05-19T23:50:59.551Z,26.10
2017-05-19T23:53:27.878Z,24.18
2017-05-19T23:55:56.093Z,23.78
2017-05-19T23:58:24.310Z,23.98
